Washington, AR (71862)

7:57 PM CST on February 07, 2016 (GMT -0600)
HopePrescott.com Hope Office | | Change Station
CLOSE
Current Station
Personal Weather Station
Location: Hope, AR
Elevation: 357 ft
Nearby Weather Stations
Active Advisory: Lake Wind Advisory

Elev 357 ft 33.66 °N, 93.59 °W | Updated 6 seconds ago

Clear
Clear
52.0 °F
Feels Like 52.0 °F
N
1.6
Wind Variable Wind from North
Gusts 3.1 mph

Today
High -- | Low -- °F
--% Chance of Precip.
Yesterday
High -- | Low -- °F
Precip. -- in
Pressure 30.12 in
Visibility 10.0 miles
Clouds Clear
Dew Point 35 °F
Humidity 52%
Rainfall 0.00 in
Snow Depth Not available.
7:06 AM 5:51 PM
Waning Crescent, 0% visible
METAR KTXK 080153Z 26006KT 10SM CLR 12/00 A3011 RMK AO2 SLP197 T01220000
Pressure 30.12 in
Visibility 10.0 miles
Clouds Clear
Dew Point 35 °F
Humidity 52%
Rainfall 0.00 in
Snow Depth Not available.
7:06 AM 5:51 PM
Waning Crescent, 0% visible
METAR KTXK 080153Z 26006KT 10SM CLR 12/00 A3011 RMK AO2 SLP197 T01220000

10-Day Weather Forecast

Almanac

Astronomy

Feb. 07, 2016 Rise Set
Actual Time
Civil Twilight
Nautical Twilight
Astronomical Twilight
Moon
Length of Visible Light
Length of Day
Tomorrow will be .
, % of the Moon is Illuminated

Today's Extremes

State Highs State Lows

Community

WunderPhotos

Upload Photos

1,891,355 photos uploaded!

WunderBlog® & News

Nearby

Air Quality

  Air Quality AQ Index Pollutant
Not available.

Snow Depth

Station Depth Elevation

Earthquake Activity

City Distance Mag. Time & Date
Minimum magnitude displayed is 2.5.

Coastal Water Temperatures

Place Temperature

Stations

Nearby Weather Stations

Station Location Temp. Windchill Dew Point Humidity Wind Precip. Elev Updated Type
                   

Watches & Warnings

Lake Wind Advisory
Issued: 3:25 PM CST Feb. 7, 2016 – National Weather Service

... Lake Wind Advisory in effect from 6 am to 6 PM CST Monday...

The National Weather Service in Shreveport has issued a lake Wind
Advisory... which is in effect from 6 am to 6 PM CST Monday.

* Event... a tight pressure gradient will be in place Monday across
the entire four state region... behind the passage of a cold
front tonight. Northwest winds will increase to 15 to 25 mph
with gusts to 35 to 40 mph by daybreak... and persist through
much of the day before diminishing by sunset.

* Timing... from 6 am to 6 PM CST Monday.

* Impact... boaters should exercise caution on area lakes due to
rough conditions.

Precautionary/preparedness actions...

A lake Wind Advisory indicates that winds will cause rough chop
on area lakes. Small boats will be especially prone to capsizing.



15